Time,TemperatureF,DewpointF,PressureIn,WindDirection,WindDirectionDegrees,WindSpeedMPH,WindSpeedGustMPH,Humidity,HourlyPrecipIn,Conditions,Clouds,dailyrainin,SolarRadiationWatts/m^2,SoftwareType,DateUTC
2013-05-03 00:01:00,43.0,21.0,30.36,SE,128,8.0,9.0,41,-99.99,,,-99.99,0.000000,,2013-05-03 06:01:00,
2013-05-03 00:11:00,43.0,20.0,30.36,SE,146,7.0,8.0,39,-99.99,,,-99.99,-0.100000,,2013-05-03 06:11:00,
2013-05-03 00:21:00,43.0,19.0,30.36,SSE,164,8.0,11.0,38,-99.99,,,-99.99,-0.100000,,2013-05-03 06:21:00,
2013-05-03 00:31:00,46.0,18.0,30.36,SSE,163,10.0,14.0,32,-99.99,,,-99.99,-0.100000,,2013-05-03 06:31:00,
2013-05-03 00:41:00,45.0,19.0,30.35,SSE,161,10.0,14.0,35,-99.99,,,-99.99,0.300000,,2013-05-03 06:41:00,
2013-05-03 00:51:00,47.0,18.0,30.35,SSE,168,10.0,14.0,32,-99.99,,,-99.99,0.200000,,2013-05-03 06:51:00,
2013-05-03 01:01:00,47.0,21.0,30.36,South,190,5.0,11.0,36,-99.99,,,-99.99,-0.100000,,2013-05-03 07:01:00,
2013-05-03 01:11:00,42.0,27.0,30.36,NW,320,4.0,7.0,55,-99.99,,,-99.99,0.000000,,2013-05-03 07:11:00,
2013-05-03 01:21:00,47.0,19.0,30.36,SSW,194,9.0,15.0,32,-99.99,,,-99.99,0.000000,,2013-05-03 07:21:00,
2013-05-03 01:31:00,43.0,25.0,30.36,WNW,288,4.0,6.0,49,-99.99,,,-99.99,0.100000,,2013-05-03 07:31:00,
2013-05-03 01:42:00,41.0,26.0,30.35,NW,318,4.0,6.0,54,-99.99,,,-99.99,0.000000,,2013-05-03 07:42:00,
2013-05-03 01:52:00,41.0,27.0,30.35,SW,229,1.0,2.0,56,-99.99,,,-99.99,0.100000,,2013-05-03 07:52:00,
2013-05-03 02:01:00,40.0,25.0,30.34,SSE,152,3.0,5.0,56,-99.99,,,-99.99,-0.100000,,2013-05-03 08:01:00,
2013-05-03 02:11:00,42.0,22.0,30.34,South,182,6.0,8.0,44,-99.99,,,-99.99,0.000000,,2013-05-03 08:11:00,
2013-05-03 02:21:00,44.0,18.0,30.34,East,80,5.0,7.0,35,-99.99,,,-99.99,0.000000,,2013-05-03 08:21:00,
2013-05-03 02:31:00,44.0,18.0,30.33,East,101,6.0,9.0,36,-99.99,,,-99.99,0.200000,,2013-05-03 08:31:00,
2013-05-03 02:41:00,44.0,19.0,30.33,East,99,5.0,7.0,37,-99.99,,,-99.99,-0.100000,,2013-05-03 08:41:00,
2013-05-03 02:52:00,43.0,19.0,30.32,ENE,68,6.0,8.0,38,-99.99,,,-99.99,-0.200000,,2013-05-03 08:52:00,
2013-05-03 03:01:00,42.0,20.0,30.32,ENE,77,5.0,8.0,41,-99.99,,,-99.99,0.000000,,2013-05-03 09:01:00,
2013-05-03 03:11:00,40.0,21.0,30.32,East,79,5.0,9.0,45,-99.99,,,-99.99,0.000000,,2013-05-03 09:11:00,
2013-05-03 03:21:00,40.0,20.0,30.31,ENE,76,8.0,10.0,44,-99.99,,,-99.99,0.000000,,2013-05-03 09:21:00,
2013-05-03 03:32:00,40.0,21.0,30.31,East,80,7.0,9.0,45,-99.99,,,-99.99,-0.100000,,2013-05-03 09:32:00,
2013-05-03 03:42:00,40.0,23.0,30.30,NE,38,5.0,9.0,50,-99.99,,,-99.99,-0.200000,,2013-05-03 09:42:00,
2013-05-03 03:52:00,40.0,22.0,30.30,NE,46,3.0,6.0,48,-99.99,,,-99.99,-0.300000,,2013-05-03 09:52:00,
2013-05-03 04:02:00,40.0,21.0,30.30,North,354,3.0,4.0,47,-99.99,,,-99.99,-0.100000,,2013-05-03 10:02:00,
2013-05-03 04:12:00,40.0,22.0,30.30,NNW,340,3.0,3.0,49,-99.99,,,-99.99,0.000000,,2013-05-03 10:12:00,
2013-05-03 04:22:00,39.0,22.0,30.29,NE,34,3.0,4.0,49,-99.99,,,-99.99,0.000000,,2013-05-03 10:22:00,
2013-05-03 04:32:00,40.0,22.0,30.29,NE,52,3.0,5.0,48,-99.99,,,-99.99,0.000000,,2013-05-03 10:32:00,
2013-05-03 04:41:00,43.0,19.0,30.28,East,101,4.0,6.0,38,-99.99,,,-99.99,0.000000,,2013-05-03 10:41:00,
2013-05-03 04:52:00,43.0,19.0,30.28,ESE,106,6.0,9.0,37,-99.99,,,-99.99,0.000000,,2013-05-03 10:52:00,
2013-05-03 05:02:00,41.0,22.0,30.28,SE,129,3.0,5.0,47,-99.99,,,-99.99,0.100000,,2013-05-03 11:02:00,
2013-05-03 05:11:00,42.0,20.0,30.28,SE,133,3.0,4.0,40,-99.99,,,-99.99,-0.100000,,2013-05-03 11:11:00,
2013-05-03 05:21:00,40.0,25.0,30.28,South,179,3.0,4.0,54,-99.99,,,-99.99,-0.100000,,2013-05-03 11:21:00,
2013-05-03 05:31:00,39.0,25.0,30.28,South,183,2.0,3.0,56,-99.99,,,-99.99,-0.100000,,2013-05-03 11:31:00,
2013-05-03 05:41:00,38.0,26.0,30.27,NW,312,1.0,2.0,60,-99.99,,,-99.99,0.000000,,2013-05-03 11:41:00,
2013-05-03 05:51:00,41.0,22.0,30.28,ENE,65,3.0,4.0,47,-99.99,,,-99.99,0.000000,,2013-05-03 11:51:00,
2013-05-03 06:01:00,39.0,24.0,30.27,East,82,3.0,4.0,54,-99.99,,,-99.99,-0.100000,,2013-05-03 12:01:00,
2013-05-03 06:11:00,40.0,22.0,30.27,East,99,6.0,7.0,48,-99.99,,,-99.99,0.000000,,2013-05-03 12:11:00,
2013-05-03 06:21:00,40.0,21.0,30.27,East,85,5.0,7.0,46,-99.99,,,-99.99,0.200000,,2013-05-03 12:21:00,
2013-05-03 06:32:00,38.0,23.0,30.27,ENE,75,4.0,6.0,53,-99.99,,,-99.99,1.100000,,2013-05-03 12:32:00,
2013-05-03 06:41:00,37.0,24.0,30.27,ENE,69,4.0,5.0,58,-99.99,,,-99.99,2.600000,,2013-05-03 12:41:00,
2013-05-03 06:51:00,37.0,25.0,30.27,NE,41,5.0,6.0,61,-99.99,,,-99.99,10.100000,,2013-05-03 12:51:00,
2013-05-03 07:01:00,37.0,24.0,30.27,NE,34,6.0,7.0,59,-99.99,,,-99.99,23.299999,,2013-05-03 13:01:00,
2013-05-03 07:11:00,37.0,23.0,30.26,NE,53,7.0,8.0,56,-99.99,,,-99.99,30.500000,,2013-05-03 13:11:00,
2013-05-03 07:22:00,37.0,24.0,30.26,NE,56,5.0,7.0,59,-99.99,,,-99.99,44.000000,,2013-05-03 13:22:00,
2013-05-03 07:31:00,37.0,24.0,30.26,NNE,33,5.0,7.0,59,-99.99,,,-99.99,52.599998,,2013-05-03 13:31:00,
2013-05-03 07:42:00,37.0,23.0,30.26,NNE,28,5.0,6.0,56,-99.99,,,-99.99,54.400002,,2013-05-03 13:42:00,
2013-05-03 07:52:00,38.0,23.0,30.26,NNE,23,5.0,6.0,54,-99.99,,,-99.99,112.300003,,2013-05-03 13:52:00,
2013-05-03 08:01:00,38.0,25.0,30.26,North,10,5.0,6.0,57,-99.99,,,-99.99,199.500000,,2013-05-03 14:01:00,
2013-05-03 08:11:00,40.0,24.0,30.26,NNE,17,4.0,6.0,53,-99.99,,,-99.99,204.000000,,2013-05-03 14:11:00,
2013-05-03 08:21:00,40.0,25.0,30.25,NNE,21,5.0,6.0,53,-99.99,,,-99.99,255.800003,,2013-05-03 14:21:00,
2013-05-03 08:31:00,42.0,26.0,30.25,NNE,13,4.0,5.0,53,-99.99,,,-99.99,288.200012,,2013-05-03 14:31:00,
2013-05-03 08:41:00,43.0,26.0,30.25,NNE,12,4.0,5.0,50,-99.99,,,-99.99,372.899994,,2013-05-03 14:41:00,
2013-05-03 08:52:00,45.0,25.0,30.25,North,6,3.0,4.0,46,-99.99,,,-99.99,422.500000,,2013-05-03 14:52:00,
2013-05-03 09:01:00,46.0,25.0,30.24,NE,35,3.0,4.0,44,-99.99,,,-99.99,377.600006,,2013-05-03 15:01:00,
2013-05-03 09:11:00,47.0,26.0,30.24,NNE,30,3.0,4.0,44,-99.99,,,-99.99,427.100006,,2013-05-03 15:11:00,
2013-05-03 09:21:00,47.0,25.0,30.23,NNE,22,3.0,6.0,41,-99.99,,,-99.99,440.799988,,2013-05-03 15:21:00,
2013-05-03 09:32:00,48.0,24.0,30.23,NE,40,3.0,4.0,39,-99.99,,,-99.99,400.600006,,2013-05-03 15:32:00,
2013-05-03 09:43:00,50.0,26.0,30.23,NE,34,2.0,4.0,39,-99.99,,,-99.99,423.700012,,2013-05-03 15:43:00,
2013-05-03 09:53:00,51.0,26.0,30.23,North,10,3.0,5.0,38,-99.99,,,-99.99,512.700012,,2013-05-03 15:53:00,
2013-05-03 10:03:00,51.0,24.0,30.22,NNW,341,2.0,2.0,35,-99.99,,,-99.99,590.299988,,2013-05-03 16:03:00,
2013-05-03 10:12:00,53.0,25.0,30.22,WNW,297,3.0,6.0,34,-99.99,,,-99.99,570.000000,,2013-05-03 16:12:00,
2013-05-03 10:22:00,54.0,23.0,30.22,NW,325,3.0,6.0,30,-99.99,,,-99.99,610.700012,,2013-05-03 16:22:00,
2013-05-03 10:32:00,54.0,23.0,30.21,NNW,330,4.0,6.0,30,-99.99,,,-99.99,530.000000,,2013-05-03 16:32:00,
2013-05-03 10:41:00,54.0,24.0,30.21,NW,314,5.0,7.0,31,-99.99,,,-99.99,630.000000,,2013-05-03 16:41:00,
2013-05-03 10:52:00,54.0,25.0,30.20,NNW,328,5.0,7.0,31,-99.99,,,-99.99,631.900024,,2013-05-03 16:52:00,
2013-05-03 11:02:00,54.0,23.0,30.20,NNE,13,6.0,7.0,29,-99.99,,,-99.99,610.299988,,2013-05-03 17:02:00,
2013-05-03 11:11:00,56.0,26.0,30.20,North,351,5.0,7.0,31,-99.99,,,-99.99,796.200012,,2013-05-03 17:11:00,
2013-05-03 11:22:00,56.0,25.0,30.19,NW,322,6.0,9.0,30,-99.99,,,-99.99,862.000000,,2013-05-03 17:22:00,
2013-05-03 11:31:00,56.0,23.0,30.19,NW,306,6.0,9.0,27,-99.99,,,-99.99,763.599976,,2013-05-03 17:31:00,
2013-05-03 11:42:00,57.0,23.0,30.19,West,274,4.0,6.0,26,-99.99,,,-99.99,785.900024,,2013-05-03 17:42:00,
2013-05-03 11:51:00,57.0,22.0,30.18,NW,311,5.0,8.0,25,-99.99,,,-99.99,741.299988,,2013-05-03 17:51:00,
2013-05-03 12:01:00,58.0,24.0,30.18,North,354,6.0,10.0,27,-99.99,,,-99.99,910.000000,,2013-05-03 18:01:00,
2013-05-03 12:11:00,58.0,23.0,30.18,North,351,5.0,9.0,25,-99.99,,,-99.99,946.000000,,2013-05-03 18:11:00,
2013-05-03 12:21:00,59.0,22.0,30.18,West,276,5.0,9.0,24,-99.99,,,-99.99,826.000000,,2013-05-03 18:21:00,
2013-05-03 12:31:00,59.0,22.0,30.17,NW,307,5.0,8.0,23,-99.99,,,-99.99,900.000000,,2013-05-03 18:31:00,
2013-05-03 12:41:00,59.0,22.0,30.17,NNW,341,6.0,9.0,23,-99.99,,,-99.99,766.000000,,2013-05-03 18:41:00,
2013-05-03 12:51:00,60.0,21.0,30.17,West,281,5.0,9.0,22,-99.99,,,-99.99,610.500000,,2013-05-03 18:51:00,
2013-05-03 13:01:00,60.0,21.0,30.16,NW,311,5.0,9.0,22,-99.99,,,-99.99,739.500000,,2013-05-03 19:01:00,
2013-05-03 13:11:00,60.0,20.0,30.16,NNW,345,3.0,6.0,21,-99.99,,,-99.99,1011.000000,,2013-05-03 19:11:00,
2013-05-03 13:21:00,60.0,20.0,30.15,South,177,5.0,10.0,21,-99.99,,,-99.99,1037.000000,,2013-05-03 19:21:00,
2013-05-03 13:31:00,61.0,21.0,30.14,WSW,252,6.0,9.0,21,-99.99,,,-99.99,605.200012,,2013-05-03 19:31:00,
2013-05-03 13:41:00,61.0,22.0,30.14,WNW,284,4.0,7.0,22,-99.99,,,-99.99,639.400024,,2013-05-03 19:41:00,
2013-05-03 13:52:00,62.0,19.0,30.13,WNW,289,6.0,8.0,19,-99.99,,,-99.99,953.000000,,2013-05-03 19:52:00,
2013-05-03 14:02:00,62.0,16.0,30.13,SW,233,6.0,10.0,16,-99.99,,,-99.99,1014.000000,,2013-05-03 20:02:00,
2013-05-03 14:11:00,62.0,18.0,30.13,SW,227,3.0,9.0,17,-99.99,,,-99.99,1118.000000,,2013-05-03 20:11:00,
2013-05-03 14:21:00,62.0,19.0,30.12,NW,307,7.0,10.0,18,-99.99,,,-99.99,579.000000,,2013-05-03 20:21:00,
2013-05-03 14:31:00,63.0,20.0,30.12,West,262,4.0,7.0,19,-99.99,,,-99.99,873.000000,,2013-05-03 20:31:00,
2013-05-03 14:41:00,63.0,19.0,30.11,West,272,7.0,10.0,18,-99.99,,,-99.99,1033.000000,,2013-05-03 20:41:00,
2013-05-03 14:52:00,63.0,16.0,30.11,NW,321,5.0,8.0,16,-99.99,,,-99.99,1093.000000,,2013-05-03 20:52:00,
2013-05-03 15:01:00,63.0,12.0,30.10,West,268,6.0,9.0,13,-99.99,,,-99.99,785.299988,,2013-05-03 21:01:00,
2013-05-03 15:11:00,63.0,13.0,30.10,WNW,290,6.0,8.0,14,-99.99,,,-99.99,950.000000,,2013-05-03 21:11:00,
2013-05-03 15:21:00,63.0,11.0,30.10,WNW,286,8.0,11.0,12,-99.99,,,-99.99,735.799988,,2013-05-03 21:21:00,
2013-05-03 15:32:00,64.0,11.0,30.10,WSW,248,7.0,11.0,12,-99.99,,,-99.99,776.500000,,2013-05-03 21:32:00,
2013-05-03 15:42:00,63.0,12.0,30.09,WNW,300,6.0,9.0,13,-99.99,,,-99.99,822.000000,,2013-05-03 21:42:00,
2013-05-03 15:52:00,64.0,13.0,30.09,SSW,205,5.0,9.0,13,-99.99,,,-99.99,548.400024,,2013-05-03 21:52:00,
2013-05-03 16:02:00,64.0,14.0,30.08,NW,319,6.0,13.0,14,-99.99,,,-99.99,561.500000,,2013-05-03 22:02:00,
2013-05-03 16:12:00,63.0,10.0,30.08,WSW,238,6.0,10.0,12,-99.99,,,-99.99,401.299988,,2013-05-03 22:12:00,
2013-05-03 16:22:00,63.0,12.0,30.07,WNW,294,3.0,6.0,13,-99.99,,,-99.99,535.200012,,2013-05-03 22:22:00,
2013-05-03 16:32:00,63.0,11.0,30.07,SW,225,8.0,11.0,12,-99.99,,,-99.99,368.000000,,2013-05-03 22:32:00,
2013-05-03 16:42:00,64.0,14.0,30.07,West,268,6.0,10.0,13,-99.99,,,-99.99,691.000000,,2013-05-03 22:42:00,
2013-05-03 16:51:00,65.0,14.0,30.06,WSW,237,7.0,12.0,13,-99.99,,,-99.99,652.700012,,2013-05-03 22:51:00,
2013-05-03 17:01:00,64.0,13.0,30.06,SW,225,5.0,10.0,13,-99.99,,,-99.99,370.700012,,2013-05-03 23:01:00,
2013-05-03 17:11:00,64.0,12.0,30.05,WSW,246,6.0,10.0,12,-99.99,,,-99.99,500.399994,,2013-05-03 23:11:00,
2013-05-03 17:21:00,64.0,12.0,30.05,WSW,247,6.0,9.0,13,-99.99,,,-99.99,318.000000,,2013-05-03 23:21:00,
2013-05-03 17:31:00,64.0,12.0,30.05,SW,228,5.0,9.0,12,-99.99,,,-99.99,367.200012,,2013-05-03 23:31:00,
2013-05-03 17:41:00,64.0,13.0,30.05,WSW,253,6.0,10.0,13,-99.99,,,-99.99,306.299988,,2013-05-03 23:41:00,
2013-05-03 17:51:00,64.0,13.0,30.05,WNW,289,8.0,13.0,13,-99.99,,,-99.99,235.300003,,2013-05-03 23:51:00,
2013-05-03 18:01:00,64.0,13.0,30.05,WNW,302,6.0,11.0,13,-99.99,,,-99.99,201.699997,,2013-05-04 00:01:00,
2013-05-03 18:11:00,64.0,13.0,30.05,WSW,246,5.0,12.0,13,-99.99,,,-99.99,200.800003,,2013-05-04 00:11:00,
2013-05-03 18:22:00,64.0,12.0,30.04,WSW,257,6.0,10.0,13,-99.99,,,-99.99,196.500000,,2013-05-04 00:22:00,
2013-05-03 18:31:00,64.0,14.0,30.04,NW,316,8.0,12.0,14,-99.99,,,-99.99,184.199997,,2013-05-04 00:31:00,
2013-05-03 18:41:00,63.0,12.0,30.05,West,264,9.0,16.0,13,-99.99,,,-99.99,169.800003,,2013-05-04 00:41:00,
2013-05-03 18:52:00,63.0,14.0,30.05,SW,232,3.0,4.0,14,-99.99,,,-99.99,154.600006,,2013-05-04 00:52:00,
2013-05-03 19:01:00,63.0,15.0,30.04,SW,227,6.0,10.0,15,-99.99,,,-99.99,174.600006,,2013-05-04 01:01:00,
2013-05-03 19:11:00,63.0,15.0,30.04,SSW,212,4.0,7.0,15,-99.99,,,-99.99,218.699997,,2013-05-04 01:11:00,
2013-05-03 19:21:00,63.0,16.0,30.04,SSW,193,3.0,4.0,16,-99.99,,,-99.99,190.199997,,2013-05-04 01:21:00,
2013-05-03 19:31:00,63.0,15.0,30.04,WSW,254,3.0,5.0,15,-99.99,,,-99.99,143.199997,,2013-05-04 01:31:00,
2013-05-03 19:41:00,63.0,18.0,30.03,SSW,212,2.0,3.0,17,-99.99,,,-99.99,92.400002,,2013-05-04 01:41:00,
2013-05-03 19:52:00,62.0,20.0,30.03,South,171,1.0,2.0,19,-99.99,,,-99.99,63.400002,,2013-05-04 01:52:00,
2013-05-03 20:02:00,62.0,15.0,30.03,ENE,75,2.0,3.0,15,-99.99,,,-99.99,40.299999,,2013-05-04 02:02:00,
2013-05-03 20:11:00,61.0,18.0,30.03,NNW,335,2.0,3.0,18,-99.99,,,-99.99,26.299999,,2013-05-04 02:11:00,
2013-05-03 20:21:00,60.0,19.0,30.03,NW,304,1.0,2.0,19,-99.99,,,-99.99,19.799999,,2013-05-04 02:21:00,
2013-05-03 20:32:00,60.0,15.0,30.03,NW,311,2.0,3.0,17,-99.99,,,-99.99,14.100000,,2013-05-04 02:32:00,
2013-05-03 20:41:00,59.0,20.0,30.03,WNW,301,2.0,5.0,21,-99.99,,,-99.99,8.000000,,2013-05-04 02:41:00,
2013-05-03 20:52:00,59.0,18.0,30.03,North,349,4.0,4.0,19,-99.99,,,-99.99,2.300000,,2013-05-04 02:52:00,
2013-05-03 21:01:00,60.0,19.0,30.03,North,8,4.0,6.0,20,-99.99,,,-99.99,0.700000,,2013-05-04 03:01:00,
2013-05-03 21:11:00,61.0,15.0,30.03,NE,52,7.0,10.0,16,-99.99,,,-99.99,0.100000,,2013-05-04 03:11:00,
2013-05-03 21:21:00,59.0,20.0,30.03,North,7,7.0,10.0,21,-99.99,,,-99.99,-0.100000,,2013-05-04 03:21:00,
2013-05-03 21:32:00,58.0,21.0,30.04,NNE,26,6.0,7.0,23,-99.99,,,-99.99,-0.200000,,2013-05-04 03:32:00,
2013-05-03 21:42:00,56.0,28.0,30.05,North,359,18.0,26.0,34,-99.99,,,-99.99,-0.100000,,2013-05-04 03:42:00,
2013-05-03 21:52:00,55.0,31.0,30.06,North,0,16.0,25.0,40,-99.99,,,-99.99,0.000000,,2013-05-04 03:52:00,
2013-05-03 22:02:00,54.0,32.0,30.06,North,3,17.0,24.0,42,-99.99,,,-99.99,-0.100000,,2013-05-04 04:02:00,
2013-05-03 22:12:00,54.0,32.0,30.06,NNE,16,14.0,20.0,43,-99.99,,,-99.99,0.000000,,2013-05-04 04:12:00,
2013-05-03 22:22:00,53.0,32.0,30.06,NNE,17,14.0,20.0,44,-99.99,,,-99.99,0.300000,,2013-05-04 04:22:00,
2013-05-03 22:32:00,53.0,32.0,30.07,NE,40,11.0,14.0,44,-99.99,,,-99.99,0.000000,,2013-05-04 04:32:00,
2013-05-03 22:42:00,52.0,33.0,30.07,East,80,8.0,13.0,47,-99.99,,,-99.99,0.000000,,2013-05-04 04:42:00,
2013-05-03 22:52:00,51.0,33.0,30.07,ENE,65,6.0,8.0,49,-99.99,,,-99.99,-0.100000,,2013-05-04 04:52:00,
2013-05-03 23:02:00,51.0,33.0,30.08,ENE,75,6.0,8.0,51,-99.99,,,-99.99,-0.100000,,2013-05-04 05:02:00,
2013-05-03 23:11:00,51.0,33.0,30.08,NE,52,4.0,6.0,51,-99.99,,,-99.99,0.200000,,2013-05-04 05:11:00,
2013-05-03 23:21:00,51.0,33.0,30.07,NNE,21,7.0,11.0,49,-99.99,,,-99.99,-0.200000,,2013-05-04 05:21:00,
2013-05-03 23:32:00,52.0,33.0,30.07,NNE,26,8.0,10.0,48,-99.99,,,-99.99,0.000000,,2013-05-04 05:32:00,
2013-05-03 23:42:00,52.0,33.0,30.07,NNE,28,9.0,15.0,48,-99.99,,,-99.99,0.000000,,2013-05-04 05:42:00,
2013-05-03 23:51:00,51.0,33.0,30.07,NNE,33,10.0,16.0,50,-99.99,,,-99.99,0.000000,,2013-05-04 05:51:00,